Flight Track Log - Related Links

Times and Time Zones

All times are in EDT time to prevent confusion due to time zone crossing. See the N929SR flight status page for this flight to view local times or setup timezone preferences in your user account.

Time Position Orientation Groundspeed Altitude Reporting Facility
EDT Latitude Longitude Course Direction KTS MPH feet Rate Location/Type
Fri 08:58:06 PM 33.9167 -118.5000 140° Southeast 260 299 4,900  Level Southern California TRACON
Fri 08:59:08 PM 33.8419 -118.5258 196° South 278 320 8,200 2,661 Climbing Los Angeles Center
Fri 09:00:10 PM 33.7681 -118.5342 185° South 293 337 10,400 1,355 Climbing Los Angeles Center
Fri 09:01:12 PM 33.6781 -118.4597 145° Southeast 376 433 11,000 290 Climbing Los Angeles Center
Fri 09:02:14 PM 33.6292 -118.3517 118° Southeast 378 435 11,000  Level Los Angeles Center
Fri 09:03:00 PM 33.5879 -118.0544 140° Southeast  Level FlightAware Approximate
Fri 09:03:16 PM 33.5828 -118.2419 117° Southeast 378 435 11,000  Level Los Angeles Center
Fri 09:04:18 PM 33.5353 -118.1319 117° Southeast 376 433 11,000  Level Los Angeles Center
Fri 09:05:20 PM 33.4822 -118.0253 121° Southeast 377 434 11,000  Level Los Angeles Center
Fri 09:06:22 PM 33.4106 -117.9039 125° Southeast 375 432 11,000 48 Level Los Angeles Center
Fri 09:07:24 PM 33.3525 -117.8025 124° Southeast 372 428 11,100 48 Climbing Los Angeles Center
Fri 09:08:26 PM 33.2950 -117.6997 124° Southeast 373 429 11,100 -48 Level Los Angeles Center
Fri 09:09:28 PM 33.2233 -117.6183 136° Southeast 362 417 11,000 -125 Descending Los Angeles Center
Fri 09:10:02 PM 33.1667 -117.5667 143° Southeast 341 392 10,900 -720 Descending Southern California TRACON
Fri 09:11:08 PM 33.0833 -117.5000 146° Southeast 323 372 9,800 -867 Descending Southern California TRACON
Fri 09:11:32 PM 33.0731 -117.4878 135° Southeast 334 384 9,600 -1,469 Descending Los Angeles Center
Fri 09:12:46 PM 32.9872 -117.4100 143° Southeast 282 325 7,400 -1,147 Descending Los Angeles Center
Fri 09:13:48 PM 32.9325 -117.3414 134° Southeast 285 328 7,000 -312 Descending Los Angeles Center
Fri 09:14:03 PM 32.9167 -117.3167 127° Southeast 283 326 7,000  Level Southern California TRACON
Fri 09:15:09 PM 32.8667 -117.2500 132° Southeast 275 316 7,000  Level Southern California TRACON
Fri 09:15:51 PM 32.8303 -117.2061 135° Southeast 277 319 7,000 -288 Level Los Angeles Center
Fri 09:16:53 PM 32.7892 -117.1214 120° Southeast 289 333 6,500 -968 Descending Los Angeles Center
Fri 09:17:55 PM 32.7711 -117.0300 103° East 286 329 5,000 -1,169 Descending Los Angeles Center
Fri 09:18:10 PM 32.7667 -117.0000 100° East 271 312 5,000  Level Southern California TRACON
Fri 09:19:04 PM 32.7500 -116.9333 107° East 204 235 5,000 -500 Level Southern California TRACON
Fri 09:20:10 PM 32.7000 -116.9333 180° South 195 224 4,000 -619 Descending Southern California TRACON
Fri 09:21:10 PM 32.6833 -116.9833 248° West 184 212 3,700 -200 Descending Southern California TRACON
Fri 09:22:10 PM 32.7000 -117.0333 292° West 166 191 3,600 -350 Descending Southern California TRACON
Fri 09:23:10 PM 32.7167 -117.0833 292° West 156 180 3,000 -800 Descending Southern California TRACON
Fri 09:24:10 PM 32.7167 -117.1333 270° West 151 174 2,000 -1,169 Descending Southern California TRACON
Fri 09:25:08 PM 32.7297 -117.1747 291° West 150 173 700 -1,345 Descending Los Angeles Center

Login

Don't have an account? Register now (free) for customized features, flight alerts, and more!